»·PEaware :: N517DM KSBP-L19

N517DM :: KSBP-L19

FLIGHT INFORMATION

Flight Status: Arrived
Operator: Privately registered:
United States
More flights under this callsign
Pilot: Michael F. (17294)
Aircraft: CESSNA 182 SKYLANE
(C182)
More flights by this aircraft type
Origin: KSBP San Luis Co Regl
United States
Destination: L19 Wasco-Kern Co
United States
More flights between these airports :: More routes between these airports
Route: VFR
File this flight plan on PilotEdge
Remarks:
Altitude:
(Current/Filed)
7,500ft
Speed:
(Current/Filed)
120kts
Departed: 07-May-18 11:29 AM
Arrived: 07-May-18 12:10 PM
Distance/Time
Traveled:
67nm/0:41
Distance/Time
To Go:
Arrived

Flight Plot

Page will automatically refresh every two minutes.

Flight plan parsing failed; only flown route is shown


Map Options




Map Legend


Flown Route
Filed Route
Departure Airport
Arrival Airport
Navaid (VOR, NDB)
Fix

Horizontal Profiles

Position Reports

Time Latitude Longitude Heading Altitude Ground
Speed
07-May-18 11:13 35.237853 -120.647657 268 215ft 0kts
07-May-18 11:14 35.237853 -120.647658 268 215ft 0kts
07-May-18 11:15 35.237853 -120.647663 268 215ft 0kts
07-May-18 11:16 35.239364 -120.642121 35 215ft 0kts
07-May-18 11:17 35.239367 -120.642118 35 215ft 0kts
07-May-18 11:19 35.239371 -120.642116 35 215ft 0kts
07-May-18 11:20 35.239374 -120.642113 35 215ft 0kts
07-May-18 11:21 35.239377 -120.642110 35 215ft 0kts
07-May-18 11:22 35.239380 -120.642107 35 215ft 0kts
07-May-18 11:23 35.239383 -120.642105 35 215ft 0kts
07-May-18 11:24 35.239386 -120.642102 35 215ft 0kts
07-May-18 11:25 35.237645 -120.639680 124 215ft 18kts
07-May-18 11:26 35.235237 -120.635441 124 215ft 11kts
07-May-18 11:27 35.233382 -120.632540 217 215ft 7kts
07-May-18 11:28 35.233230 -120.632675 215 215ft 2kts
07-May-18 11:29 35.237434 -120.641571 304 350ft 75kts
07-May-18 11:30 35.251051 -120.664530 335 1228ft 90kts
07-May-18 11:31 35.277040 -120.646733 25 1942ft 99kts
07-May-18 11:32 35.297978 -120.627035 37 2992ft 92kts
07-May-18 11:33 35.311412 -120.600851 73 4104ft 97kts
07-May-18 11:34 35.319406 -120.569414 68 5240ft 94kts
07-May-18 11:35 35.319438 -120.537550 94 6136ft 100kts
07-May-18 11:36 35.314053 -120.505399 94 7012ft 91kts
07-May-18 11:37 35.308769 -120.473937 94 7544ft 109kts
07-May-18 11:38 35.306603 -120.431212 88 7569ft 138kts
07-May-18 11:39 35.317630 -120.386985 65 7516ft 136kts
07-May-18 11:40 35.328158 -120.343007 68 7513ft 133kts
07-May-18 11:41 35.340808 -120.299582 67 7531ft 141kts
07-May-18 11:42 35.354276 -120.254500 67 7521ft 139kts
07-May-18 11:43 35.367360 -120.210761 67 7517ft 133kts
07-May-18 11:44 35.380289 -120.167530 67 7534ft 139kts
07-May-18 11:45 35.393516 -120.123160 67 7520ft 134kts
07-May-18 11:46 35.406234 -120.080487 67 7526ft 133kts
07-May-18 11:47 35.419160 -120.037025 67 7539ft 139kts
07-May-18 11:48 35.432399 -119.992405 67 7532ft 139kts
07-May-18 11:49 35.445322 -119.948802 67 7527ft 133kts
07-May-18 11:50 35.458318 -119.904996 67 7547ft 144kts
07-May-18 11:51 35.471670 -119.859790 67 7524ft 135kts
07-May-18 11:52 35.484668 -119.815794 67 7549ft 144kts
07-May-18 11:53 35.498501 -119.768825 68 7535ft 147kts
07-May-18 11:54 35.512079 -119.722657 67 7532ft 141kts
07-May-18 11:55 35.525488 -119.677026 68 7547ft 146kts
07-May-18 11:56 35.538852 -119.631421 67 7527ft 135kts
07-May-18 11:57 35.551508 -119.588220 68 7544ft 136kts
07-May-18 11:58 35.564675 -119.542533 69 7350ft 154kts
07-May-18 11:59 35.574213 -119.492145 92 6034ft 152kts
07-May-18 12:00 35.567069 -119.444441 105 4903ft 136kts
07-May-18 12:01 35.561131 -119.398912 95 3891ft 134kts
07-May-18 12:02 35.559556 -119.353251 87 2799ft 134kts
07-May-18 12:03 35.568204 -119.310556 36 1982ft 129kts
07-May-18 12:04 35.602481 -119.303886 357 1926ft 124kts
07-May-18 12:05 35.637472 -119.306061 359 1830ft 134kts
07-May-18 12:06 35.650401 -119.332581 214 1276ft 132kts
07-May-18 12:07 35.622125 -119.342632 140 993ft 102kts
07-May-18 12:08 35.602927 -119.334304 253 1077ft 77kts
07-May-18 12:09 35.616725 -119.350040 317 328ft 60kts
07-May-18 12:10 35.619790 -119.353087 135 316ft 14kts
07-May-18 12:11 35.617405 -119.349824 86 316ft 4kts
07-May-18 12:12 35.617403 -119.349701 92 316ft 0kts
07-May-18 12:13 35.617601 -119.351091 318 317ft 60kts

Navigation Log

Ident Type
Flight plan parsing failed, navigation log unavailable